createdAt,value
2024-01-16T00:00:03.028Z,54.02
2024-01-16T00:02:31.195Z,54.32
2024-01-16T00:05:00.886Z,54.38
2024-01-16T00:07:29.098Z,54.40
2024-01-16T00:09:57.226Z,54.34
2024-01-16T00:12:25.683Z,54.19
2024-01-16T00:14:54.092Z,54.20
2024-01-16T00:17:22.655Z,54.33
2024-01-16T00:19:50.859Z,53.97
2024-01-16T00:22:20.522Z,53.94
2024-01-16T00:24:48.654Z,54.10
2024-01-16T00:27:16.942Z,53.90
2024-01-16T00:29:45.116Z,54.32
2024-01-16T00:32:17.394Z,54.21
2024-01-16T00:34:45.946Z,54.35
2024-01-16T00:37:14.135Z,54.27
2024-01-16T00:39:44.014Z,54.46
2024-01-16T00:42:12.418Z,54.62
2024-01-16T00:44:40.646Z,54.60
2024-01-16T00:47:08.954Z,54.74
2024-01-16T00:49:38.692Z,54.53
2024-01-16T00:52:07.834Z,54.69
2024-01-16T00:54:36.143Z,55.12
2024-01-16T00:57:06.566Z,55.00
2024-01-16T00:59:34.726Z,55.24
2024-01-16T01:02:03.061Z,55.94
2024-01-16T01:04:31.279Z,55.76
2024-01-16T01:06:59.414Z,56.41
2024-01-16T01:09:27.698Z,55.63
2024-01-16T01:11:55.891Z,56.49
2024-01-16T01:14:27.130Z,55.69
2024-01-16T01:16:55.447Z,55.73
2024-01-16T01:19:23.666Z,56.59
2024-01-16T01:21:51.894Z,55.78
2024-01-16T01:24:20.205Z,56.39
2024-01-16T01:26:48.406Z,56.62
2024-01-16T01:29:16.860Z,55.93
2024-01-16T01:31:49.882Z,57.00
2024-01-16T01:34:18.381Z,56.19
2024-01-16T01:36:46.626Z,57.24
2024-01-16T01:39:14.810Z,56.36
2024-01-16T01:41:43.235Z,56.29
2024-01-16T01:44:17.398Z,56.72
2024-01-16T01:46:47.431Z,56.46
2024-01-16T01:49:18.343Z,56.63
2024-01-16T01:51:47.333Z,57.54
2024-01-16T01:54:16.638Z,57.16
2024-01-16T01:56:47.403Z,56.90
2024-01-16T01:59:16.795Z,56.80
2024-01-16T02:01:45.194Z,56.56
2024-01-16T02:04:16.635Z,57.91
2024-01-16T02:06:46.666Z,57.02
2024-01-16T02:09:15.768Z,56.83
2024-01-16T02:11:44.609Z,56.80
2024-01-16T02:14:13.356Z,57.58
2024-01-16T02:16:43.480Z,58.34
2024-01-16T02:19:11.735Z,57.39
2024-01-16T02:21:45.305Z,58.64
2024-01-16T02:24:17.947Z,58.51
2024-01-16T02:26:46.536Z,59.14
2024-01-16T02:29:15.283Z,58.86
2024-01-16T02:31:43.421Z,59.26
2024-01-16T02:34:11.620Z,58.44
2024-01-16T02:36:39.961Z,59.21
2024-01-16T02:39:11.049Z,59.01
2024-01-16T02:41:40.726Z,58.91
2024-01-16T02:44:09.039Z,59.48
2024-01-16T02:46:37.223Z,59.96
2024-01-16T02:49:05.516Z,60.15
2024-01-16T02:51:33.717Z,59.35
2024-01-16T02:54:02.010Z,59.99
2024-01-16T02:56:30.214Z,59.37
2024-01-16T02:58:59.801Z,59.10
2024-01-16T03:01:28.537Z,59.92
2024-01-16T03:03:56.719Z,59.92
2024-01-16T03:06:26.095Z,59.04
2024-01-16T03:08:54.567Z,59.30
2024-01-16T03:11:23.184Z,59.46
2024-01-16T03:13:53.854Z,60.01
2024-01-16T03:16:23.767Z,59.79
2024-01-16T03:18:52.439Z,60.15
2024-01-16T03:21:20.701Z,60.29
2024-01-16T03:23:49.062Z,59.89
2024-01-16T03:26:17.963Z,60.48
2024-01-16T03:28:46.610Z,60.83
2024-01-16T03:31:16.269Z,60.31
2024-01-16T03:33:46.719Z,60.31
2024-01-16T03:36:15.215Z,60.36
2024-01-16T03:38:46.025Z,60.38
2024-01-16T03:41:14.409Z,60.18
2024-01-16T03:43:43.088Z,61.14
2024-01-16T03:46:13.167Z,60.78
2024-01-16T03:48:41.865Z,60.87
2024-01-16T03:51:11.824Z,60.65
2024-01-16T03:53:40.210Z,60.50
2024-01-16T03:56:09.236Z,60.92
2024-01-16T03:58:37.511Z,61.61
2024-01-16T04:01:06.151Z,61.86
2024-01-16T04:03:35.311Z,61.55
2024-01-16T04:06:03.893Z,61.90
2024-01-16T04:08:36.556Z,61.13
2024-01-16T04:11:04.850Z,61.61
2024-01-16T04:13:33.020Z,62.06
2024-01-16T04:16:01.160Z,61.55
2024-01-16T04:18:29.441Z,61.67
2024-01-16T04:20:57.822Z,62.10
2024-01-16T04:23:26.061Z,61.40
2024-01-16T04:25:55.684Z,61.88
2024-01-16T04:28:24.807Z,62.24
2024-01-16T04:30:53.174Z,62.45
2024-01-16T04:33:21.549Z,62.05
2024-01-16T04:35:49.901Z,62.16
2024-01-16T04:38:18.200Z,61.67
2024-01-16T04:40:46.445Z,62.18
2024-01-16T04:43:16.254Z,62.22
2024-01-16T04:45:44.602Z,61.50
2024-01-16T04:48:13.062Z,61.81
2024-01-16T04:50:41.398Z,61.87
2024-01-16T04:53:09.674Z,62.20
2024-01-16T04:55:38.011Z,61.73
2024-01-16T04:58:07.198Z,61.74
2024-01-16T05:00:36.802Z,61.94
2024-01-16T05:03:07.170Z,61.41
2024-01-16T05:05:35.397Z,61.91
2024-01-16T05:08:04.794Z,61.94
2024-01-16T05:10:33.020Z,61.86
2024-01-16T05:13:01.420Z,61.64
2024-01-16T05:15:29.568Z,61.78
2024-01-16T05:17:59.329Z,61.42
2024-01-16T05:20:27.689Z,61.79
2024-01-16T05:22:55.852Z,61.86
2024-01-16T05:25:24.015Z,61.96
2024-01-16T05:27:52.210Z,61.71
2024-01-16T05:30:20.417Z,61.83
2024-01-16T05:32:48.764Z,61.85
2024-01-16T05:35:19.102Z,61.49
2024-01-16T05:37:47.524Z,61.16
2024-01-16T05:40:15.903Z,61.89
2024-01-16T05:42:44.164Z,61.90
2024-01-16T05:45:12.322Z,61.48
2024-01-16T05:47:40.617Z,61.38
2024-01-16T05:50:10.523Z,61.45
2024-01-16T05:52:43.723Z,61.09
2024-01-16T05:55:13.149Z,60.84
2024-01-16T05:57:41.323Z,61.03
2024-01-16T06:00:10.597Z,61.13
2024-01-16T06:02:38.866Z,60.79
2024-01-16T06:05:08.388Z,61.13
2024-01-16T06:07:36.669Z,60.63
2024-01-16T06:10:07.540Z,60.21
2024-01-16T06:12:36.982Z,60.50
2024-01-16T06:15:05.932Z,60.60
2024-01-16T06:17:34.464Z,59.59
2024-01-16T06:20:02.971Z,59.58
2024-01-16T06:22:31.824Z,59.89
2024-01-16T06:25:00.156Z,59.81
2024-01-16T06:27:29.908Z,59.73
2024-01-16T06:29:58.136Z,59.51
2024-01-16T06:32:26.504Z,59.97
2024-01-16T06:34:54.776Z,59.95
2024-01-16T06:37:22.961Z,59.68
2024-01-16T06:39:51.175Z,60.23
2024-01-16T06:42:19.322Z,60.01
2024-01-16T06:44:49.039Z,59.28
2024-01-16T06:47:17.351Z,59.49
2024-01-16T06:49:45.617Z,60.28
2024-01-16T06:52:13.909Z,59.28
2024-01-16T06:54:42.216Z,59.77
2024-01-16T06:57:10.353Z,59.93
2024-01-16T06:59:38.641Z,59.53
2024-01-16T07:02:09.211Z,59.76
2024-01-16T07:04:37.484Z,60.01
2024-01-16T07:07:05.840Z,59.52
2024-01-16T07:09:34.043Z,59.08
2024-01-16T07:12:02.250Z,59.03
2024-01-16T07:14:30.495Z,59.61
2024-01-16T07:16:58.636Z,59.67
2024-01-16T07:19:28.292Z,59.06
2024-01-16T07:21:56.587Z,59.27
2024-01-16T07:24:24.759Z,59.53
2024-01-16T07:26:55.488Z,59.02
2024-01-16T07:29:23.711Z,59.88
2024-01-16T07:31:51.902Z,59.60
2024-01-16T07:34:23.290Z,59.50
2024-01-16T07:36:53.075Z,59.89
2024-01-16T07:39:23.972Z,59.22
2024-01-16T07:41:52.277Z,59.61
2024-01-16T07:44:20.517Z,59.96
2024-01-16T07:46:48.747Z,59.93
2024-01-16T07:49:17.539Z,59.59
2024-01-16T07:51:45.756Z,60.13
2024-01-16T07:54:15.441Z,59.89
2024-01-16T07:56:44.013Z,58.90
2024-01-16T07:59:12.376Z,59.00
2024-01-16T08:01:40.697Z,58.69
2024-01-16T08:04:09.446Z,59.02
2024-01-16T08:06:38.131Z,59.53
2024-01-16T08:09:07.324Z,59.21
2024-01-16T08:11:38.006Z,58.07
2024-01-16T08:14:06.389Z,57.79
2024-01-16T08:16:34.691Z,57.88
2024-01-16T08:19:04.716Z,57.82
2024-01-16T08:21:33.108Z,57.58
2024-01-16T08:24:01.463Z,57.88
2024-01-16T08:26:29.709Z,57.20
2024-01-16T08:28:59.884Z,57.40
2024-01-16T08:31:28.422Z,56.62
2024-01-16T08:33:58.867Z,56.25
2024-01-16T08:36:27.189Z,56.39
2024-01-16T08:38:56.752Z,56.54
2024-01-16T08:41:25.150Z,55.89
2024-01-16T08:43:54.468Z,55.78
2024-01-16T08:46:24.050Z,56.14
2024-01-16T08:48:52.276Z,55.42
2024-01-16T08:51:20.458Z,56.14
2024-01-16T08:53:48.687Z,55.91
2024-01-16T08:56:19.038Z,56.04
2024-01-16T08:58:47.499Z,55.71
2024-01-16T09:01:16.211Z,56.17
2024-01-16T09:03:46.057Z,56.25
2024-01-16T09:06:14.430Z,55.73
2024-01-16T09:08:42.978Z,56.41
2024-01-16T09:11:12.635Z,56.85
2024-01-16T09:13:40.972Z,55.91
2024-01-16T09:16:09.284Z,56.05
2024-01-16T09:18:37.526Z,56.19
2024-01-16T09:21:07.580Z,57.01
2024-01-16T09:23:35.780Z,56.11
2024-01-16T09:26:03.976Z,56.80
2024-01-16T09:28:32.096Z,56.43
2024-01-16T09:31:00.714Z,56.12
2024-01-16T09:33:29.395Z,56.40
2024-01-16T09:35:57.850Z,57.00
2024-01-16T09:38:27.652Z,56.93
2024-01-16T09:40:59.739Z,57.05
2024-01-16T09:43:29.748Z,56.01
2024-01-16T09:46:02.405Z,56.65
2024-01-16T09:48:33.384Z,56.62
2024-01-16T09:51:02.045Z,56.87
2024-01-16T09:53:31.931Z,57.10
2024-01-16T09:56:04.534Z,56.78
2024-01-16T09:58:38.382Z,56.44
2024-01-16T10:01:07.712Z,56.16
2024-01-16T10:03:37.263Z,56.34
2024-01-16T10:06:08.671Z,56.72
2024-01-16T10:08:39.362Z,55.93
2024-01-16T10:11:07.580Z,55.60
2024-01-16T10:13:36.622Z,55.85
2024-01-16T10:16:05.282Z,55.21
2024-01-16T10:18:33.708Z,54.72
2024-01-16T10:21:02.455Z,53.67
2024-01-16T10:23:34.154Z,53.11
2024-01-16T10:26:11.327Z,52.55
2024-01-16T10:28:41.519Z,52.58
2024-01-16T10:31:11.713Z,51.99
2024-01-16T10:33:41.167Z,51.80
2024-01-16T10:36:14.357Z,52.04
2024-01-16T10:38:45.162Z,51.82
2024-01-16T10:41:16.289Z,51.60
2024-01-16T10:43:45.459Z,51.78
2024-01-16T10:46:15.328Z,52.19
2024-01-16T10:48:45.649Z,50.73
2024-01-16T10:51:16.857Z,50.93
2024-01-16T10:53:47.895Z,49.95
2024-01-16T10:56:19.962Z,50.01
2024-01-16T10:58:57.744Z,48.72
2024-01-16T11:01:27.469Z,48.54
2024-01-16T11:03:58.774Z,48.38
2024-01-16T11:06:27.643Z,47.52
2024-01-16T11:08:58.755Z,48.17
2024-01-16T11:11:30.984Z,47.05
2024-01-16T11:14:00.751Z,46.76
2024-01-16T11:16:30.489Z,45.78
2024-01-16T11:19:13.866Z,43.34
2024-01-16T11:21:48.320Z,40.84
2024-01-16T11:24:16.628Z,40.85
2024-01-16T11:26:46.418Z,42.35
2024-01-16T11:29:37.798Z,43.36
2024-01-16T11:32:18.108Z,44.19
2024-01-16T11:34:57.394Z,44.47
2024-01-16T11:37:34.168Z,45.11
2024-01-16T11:40:25.385Z,46.48
2024-01-16T11:42:57.105Z,46.51
2024-01-16T11:45:50.844Z,46.81
2024-01-16T11:48:21.056Z,46.03
2024-01-16T11:50:49.575Z,45.58
2024-01-16T11:53:37.888Z,43.28
2024-01-16T11:56:49.346Z,39.13
2024-01-16T11:59:59.738Z,34.62
2024-01-16T12:02:39.614Z,35.69
2024-01-16T12:05:08.448Z,37.05
2024-01-16T12:07:50.895Z,38.04
2024-01-16T12:10:20.290Z,39.13
2024-01-16T12:12:49.853Z,40.65
2024-01-16T12:15:21.279Z,41.39
2024-01-16T12:17:56.998Z,41.75
2024-01-16T12:20:27.248Z,42.32
2024-01-16T12:23:00.298Z,42.63
2024-01-16T12:25:59.871Z,42.85
2024-01-16T12:28:31.371Z,44.17
2024-01-16T12:31:04.421Z,43.88
2024-01-16T12:33:33.105Z,44.14
2024-01-16T12:36:06.824Z,45.61
2024-01-16T12:38:36.627Z,45.03
2024-01-16T12:41:10.753Z,44.70
2024-01-16T12:43:40.036Z,45.23
2024-01-16T12:46:09.907Z,44.96
2024-01-16T12:48:41.583Z,45.06
2024-01-16T12:51:13.871Z,45.23
2024-01-16T12:53:42.256Z,44.35
2024-01-16T12:56:12.012Z,44.12
2024-01-16T12:58:41.795Z,44.44
2024-01-16T13:01:35.271Z,44.31
2024-01-16T13:04:08.937Z,44.06
2024-01-16T13:06:38.345Z,44.92
2024-01-16T13:09:12.244Z,44.23
2024-01-16T13:11:48.991Z,44.42
2024-01-16T13:14:17.218Z,43.79
2024-01-16T13:16:46.901Z,44.56
2024-01-16T13:19:18.155Z,43.69
2024-01-16T13:21:46.574Z,43.89
2024-01-16T13:24:15.036Z,43.60
2024-01-16T13:26:44.567Z,43.66
2024-01-16T13:29:13.025Z,44.38
2024-01-16T13:31:41.515Z,44.90
2024-01-16T13:34:11.398Z,43.86
2024-01-16T13:36:53.864Z,44.63
2024-01-16T13:39:27.851Z,44.04
2024-01-16T13:41:56.100Z,45.02
2024-01-16T13:44:24.679Z,44.73
2024-01-16T13:47:00.978Z,44.65
2024-01-16T13:49:36.013Z,45.22
2024-01-16T13:52:04.662Z,45.30
2024-01-16T13:54:32.958Z,45.26
2024-01-16T13:57:06.847Z,44.77
2024-01-16T13:59:37.706Z,45.42
2024-01-16T14:02:07.381Z,44.11
2024-01-16T14:04:37.137Z,45.29
2024-01-16T14:09:38.128Z,44.94
2024-01-16T14:12:10.014Z,44.67
2024-01-16T14:14:39.744Z,44.24
2024-01-16T14:17:08.342Z,45.66
2024-01-16T14:19:39.616Z,45.64
2024-01-16T14:22:08.473Z,45.72
2024-01-16T14:24:39.376Z,45.43
2024-01-16T14:27:08.507Z,45.57
2024-01-16T14:29:39.413Z,44.27
2024-01-16T14:32:08.100Z,44.44
2024-01-16T14:34:36.394Z,45.00
2024-01-16T14:37:06.384Z,45.69
2024-01-16T14:39:37.021Z,44.40
2024-01-16T14:42:05.879Z,45.53
2024-01-16T14:44:34.236Z,45.10
2024-01-16T14:47:02.447Z,45.01
2024-01-16T14:49:33.507Z,45.38
2024-01-16T14:52:02.710Z,45.04
2024-01-16T14:54:33.904Z,45.17
2024-01-16T14:57:02.163Z,45.24
2024-01-16T14:59:30.410Z,44.78
2024-01-16T15:01:58.605Z,44.89
2024-01-16T15:04:26.920Z,45.78
2024-01-16T15:06:56.875Z,45.51
2024-01-16T15:09:25.488Z,45.65
2024-01-16T15:11:55.359Z,44.73
2024-01-16T15:14:23.600Z,44.80
2024-01-16T15:16:51.994Z,44.87
2024-01-16T15:19:20.411Z,44.95
2024-01-16T15:21:48.630Z,45.24
2024-01-16T15:24:21.242Z,46.19
2024-01-16T15:26:49.418Z,46.00
2024-01-16T15:29:19.049Z,45.76
2024-01-16T15:31:47.302Z,45.33
2024-01-16T15:34:17.247Z,45.79
2024-01-16T15:36:46.333Z,45.91
2024-01-16T15:39:17.148Z,45.65
2024-01-16T15:41:46.420Z,47.00
2024-01-16T15:44:15.077Z,46.98
2024-01-16T15:47:01.706Z,47.00
2024-01-16T15:49:30.769Z,46.80
2024-01-16T15:52:00.440Z,46.71
2024-01-16T15:54:31.454Z,47.49
2024-01-16T15:57:00.470Z,46.87
2024-01-16T15:59:28.999Z,47.17
2024-01-16T16:04:26.981Z,47.77
2024-01-16T16:06:55.289Z,47.80
2024-01-16T16:09:24.310Z,47.83
2024-01-16T16:11:53.031Z,47.02
2024-01-16T16:14:21.620Z,47.95
2024-01-16T16:16:51.238Z,47.09
2024-01-16T16:19:19.806Z,47.55
2024-01-16T16:21:51.846Z,48.23
2024-01-16T16:24:20.049Z,47.23
2024-01-16T16:26:48.351Z,47.89
2024-01-16T16:29:16.583Z,47.99
2024-01-16T16:31:44.799Z,48.00
2024-01-16T16:34:16.404Z,48.99
2024-01-16T16:36:45.471Z,48.03
2024-01-16T16:39:18.019Z,47.83
2024-01-16T16:41:47.994Z,48.09
2024-01-16T16:44:16.453Z,47.94
2024-01-16T16:46:44.703Z,48.19
2024-01-16T16:49:13.033Z,48.66
2024-01-16T16:51:43.384Z,48.42
2024-01-16T16:54:12.569Z,48.36
2024-01-16T16:56:43.681Z,48.69
2024-01-16T16:59:12.123Z,48.87
2024-01-16T17:01:41.026Z,47.96
2024-01-16T17:04:09.695Z,47.83
2024-01-16T17:06:38.304Z,49.08
2024-01-16T17:09:08.235Z,48.22
2024-01-16T17:11:36.652Z,48.59
2024-01-16T17:14:06.403Z,49.20
2024-01-16T17:16:34.602Z,48.60
2024-01-16T17:19:02.950Z,48.15
2024-01-16T17:21:31.336Z,48.68
2024-01-16T17:24:01.122Z,49.26
2024-01-16T17:26:31.359Z,48.11
2024-01-16T17:29:02.190Z,48.95
2024-01-16T17:31:32.726Z,49.34
2024-01-16T17:34:01.036Z,48.58
2024-01-16T17:36:30.391Z,49.67
2024-01-16T17:39:01.327Z,48.69
2024-01-16T17:41:31.377Z,48.63
2024-01-16T17:43:59.981Z,48.51
2024-01-16T17:46:28.062Z,49.01
2024-01-16T17:48:58.276Z,48.64
2024-01-16T17:51:27.437Z,49.05
2024-01-16T17:53:55.861Z,48.54
2024-01-16T17:56:27.160Z,48.35
2024-01-16T17:58:56.279Z,48.42
2024-01-16T18:01:24.532Z,48.59
2024-01-16T18:03:53.703Z,48.98
2024-01-16T18:06:23.765Z,49.71
2024-01-16T18:08:52.362Z,49.20
2024-01-16T18:11:22.407Z,49.69
2024-01-16T18:13:50.649Z,49.16
2024-01-16T18:16:19.004Z,49.80
2024-01-16T18:18:47.628Z,49.70
2024-01-16T18:21:17.073Z,49.96
2024-01-16T18:23:48.446Z,49.29
2024-01-16T18:26:16.759Z,50.04
2024-01-16T18:28:45.122Z,49.83
2024-01-16T18:31:17.633Z,49.49
2024-01-16T18:33:47.476Z,49.19
2024-01-16T18:36:15.813Z,49.33
2024-01-16T18:38:46.875Z,50.01
2024-01-16T18:41:16.608Z,50.11
2024-01-16T18:43:46.372Z,49.23
2024-01-16T18:46:16.355Z,49.41
2024-01-16T18:48:46.406Z,49.06
2024-01-16T18:51:15.113Z,49.34
2024-01-16T18:53:43.492Z,49.43
2024-01-16T18:56:16.904Z,49.26
2024-01-16T18:58:45.199Z,49.54
2024-01-16T19:01:14.715Z,49.06
2024-01-16T19:03:43.043Z,49.79
2024-01-16T19:06:14.073Z,49.37
2024-01-16T19:08:43.470Z,49.75
2024-01-16T19:11:12.045Z,49.23
2024-01-16T19:13:43.984Z,49.67
2024-01-16T19:16:13.292Z,49.58
2024-01-16T19:18:42.843Z,49.78
2024-01-16T19:21:11.469Z,49.89
2024-01-16T19:23:40.203Z,49.58
2024-01-16T19:26:09.637Z,49.34
2024-01-16T19:28:37.824Z,49.71
2024-01-16T19:31:07.648Z,49.12
2024-01-16T19:33:35.994Z,49.11
2024-01-16T19:36:05.462Z,49.69
2024-01-16T19:38:35.390Z,49.67
2024-01-16T19:41:04.254Z,50.17
2024-01-16T19:43:32.501Z,50.25
2024-01-16T19:46:01.889Z,50.46
2024-01-16T19:48:31.858Z,50.40
2024-01-16T19:51:01.553Z,50.30
2024-01-16T19:53:29.880Z,50.24
2024-01-16T19:56:00.279Z,50.39
2024-01-16T19:58:28.882Z,49.89
2024-01-16T20:00:57.151Z,50.41
2024-01-16T20:03:25.592Z,50.23
2024-01-16T20:05:55.368Z,50.39
2024-01-16T20:08:25.877Z,50.95
2024-01-16T20:10:54.196Z,50.27
2024-01-16T20:13:22.453Z,50.72
2024-01-16T20:15:51.638Z,50.76
2024-01-16T20:18:19.953Z,50.14
2024-01-16T20:20:48.448Z,50.38
2024-01-16T20:23:18.183Z,50.77
2024-01-16T20:25:46.574Z,50.75
2024-01-16T20:28:15.854Z,50.44
2024-01-16T20:30:45.508Z,50.81
2024-01-16T20:33:13.726Z,50.21
2024-01-16T20:35:41.886Z,49.96
2024-01-16T20:38:10.067Z,50.60
2024-01-16T20:40:40.958Z,50.37
2024-01-16T20:43:09.039Z,50.06
2024-01-16T20:45:37.099Z,50.44
2024-01-16T20:48:05.990Z,50.52
2024-01-16T20:50:35.347Z,51.40
2024-01-16T20:53:03.494Z,50.68
2024-01-16T20:55:31.671Z,51.33
2024-01-16T20:58:01.810Z,51.53
2024-01-16T21:00:35.306Z,50.82
2024-01-16T21:03:08.691Z,50.36
2024-01-16T21:05:37.083Z,51.34
2024-01-16T21:08:06.377Z,51.51
2024-01-16T21:10:34.618Z,51.38
2024-01-16T21:13:04.969Z,51.07
2024-01-16T21:15:33.432Z,51.49
2024-01-16T21:18:01.798Z,51.66
2024-01-16T21:20:30.044Z,51.63
2024-01-16T21:22:58.393Z,51.19
2024-01-16T21:25:26.626Z,51.46
2024-01-16T21:27:55.326Z,51.42
2024-01-16T21:30:27.790Z,50.83
2024-01-16T21:32:56.405Z,51.18
2024-01-16T21:35:24.840Z,51.79
2024-01-16T21:37:53.019Z,51.43
2024-01-16T21:40:21.295Z,51.08
2024-01-16T21:42:49.536Z,51.02
2024-01-16T21:45:17.618Z,51.26
2024-01-16T21:47:47.259Z,51.62
2024-01-16T21:50:22.606Z,51.86
2024-01-16T21:52:58.897Z,52.17
2024-01-16T21:55:27.050Z,51.90
2024-01-16T21:57:57.168Z,52.30
2024-01-16T22:00:25.407Z,52.08
2024-01-16T22:02:58.464Z,52.55
2024-01-16T22:05:28.029Z,52.44
2024-01-16T22:07:56.374Z,52.76
2024-01-16T22:10:25.439Z,52.64
2024-01-16T22:12:53.685Z,52.82
2024-01-16T22:15:21.920Z,52.97
2024-01-16T22:17:50.248Z,52.82
2024-01-16T22:20:20.732Z,52.57
2024-01-16T22:22:49.011Z,52.48
2024-01-16T22:25:17.382Z,52.33
2024-01-16T22:27:45.577Z,52.30
2024-01-16T22:30:15.551Z,52.45
2024-01-16T22:32:45.169Z,52.14
2024-01-16T22:35:13.537Z,51.95
2024-01-16T22:37:48.004Z,52.38
2024-01-16T22:40:17.571Z,52.10
2024-01-16T22:42:45.928Z,52.38
2024-01-16T22:45:15.786Z,52.18
2024-01-16T22:47:44.657Z,52.15
2024-01-16T22:50:13.743Z,52.32
2024-01-16T22:52:43.497Z,52.57
2024-01-16T22:55:11.805Z,52.28
2024-01-16T22:57:40.086Z,52.36
2024-01-16T23:00:19.398Z,52.02
2024-01-16T23:02:48.628Z,51.89
2024-01-16T23:05:18.562Z,52.09
2024-01-16T23:07:48.366Z,52.52
2024-01-16T23:10:17.244Z,52.11
2024-01-16T23:12:45.808Z,52.74
2024-01-16T23:15:16.893Z,52.61
2024-01-16T23:17:45.470Z,52.78
2024-01-16T23:20:16.082Z,52.64
2024-01-16T23:22:44.545Z,52.20
2024-01-16T23:25:16.214Z,52.79
2024-01-16T23:27:45.980Z,52.25
2024-01-16T23:30:14.472Z,52.60
2024-01-16T23:32:43.234Z,52.57
2024-01-16T23:35:10.974Z,52.68
2024-01-16T23:37:41.743Z,52.70
2024-01-16T23:40:13.953Z,52.26
2024-01-16T23:42:45.897Z,52.62
2024-01-16T23:45:23.777Z,52.51
2024-01-16T23:47:57.068Z,52.86
2024-01-16T23:50:25.456Z,52.61
2024-01-16T23:52:54.626Z,52.51
2024-01-16T23:55:23.905Z,52.16
2024-01-16T23:57:55.801Z,52.56
